Wakefield, Louisiana
Current Conditions -  °F | °C
As of 4:55 PM on Thursday 27 Nov 2014 (Local Time) from KHZR Reporting Station
Clear Clear  
Wind Chill: 54°   Ceiling: Unl
Heat Index: 54°   Visibility: 10mi
Dew Point: 31°   Wind: 7mph
Humidity: 41%   Direction: 330°NNW
Pressure: 30.43"   Gusts: NA
Location:  30.89°N, 91.35°W
Report Text: KHZR 272255Z AUTO 33006KT 10SM CLR 12/M01 A3043 RMK AO2 T01221008
Loading
Personal Weather Stations






























Interactive Weather Map New forecast layout! Learn more

10-Day Weather Forecast

Advertisements
Track Severe Weather on mobile